C09

Morris Municipal - James R Washburn Field Airport

Morris, Illinois, USA
METAR KC09 172315Z AUTO 02006KT 5SM -RA SCT007 BKN039 OVC045 01/00 A3030 RMK AO2 T00050001
Observed Flight Rules
Nov-17 @ 23:15 UTC (21 minutes ago) Marginal Visual Flight Rules
Wind Visibility Clouds Conditions
20° at 6 knots 5 miles
  • Scattered at 700' AGL
  • Broken at 3,900' AGL
  • Overcast at 4,500' AGL
  • Light Rain
Temperatures Readings
Current 1°C / 34°F
Dewpoint 0°C / 32°F
Humidity 93%
Altimeter 30.3" Hg
Pressure 1026 hPa
Elevation 178
METAR KC09 172315Z AUTO 02006KT 5SM -RA SCT007 BKN039 OVC045 01/00 A3030 RMK AO2 T00050001
Observed Flight Rules
Nov-17 @ 23:15 UTC
(21 minutes ago)
MVFR
Wind Visibility
20° at 6 knots 5 miles
Clouds
  • Scattered at 700' AGL
  • Broken at 3,900' AGL
  • Overcast at 4,500' AGL
Conditions
  • Light Rain
Temperature Dewpoint
1°C / 34°F 0°C / 32°F
Humidity Altimeter Pressure
93% 30.3" Hg 1026 hPa